sensor_id;sensor_type;location;lat;lon;timestamp;temperature;humidity
18934;DHT22;9599;53.706;10.384;2023-04-03T00:00:48;1.20;99.90
18934;DHT22;9599;53.706;10.384;2023-04-03T00:03:18;1.20;99.90
18934;DHT22;9599;53.706;10.384;2023-04-03T00:05:46;1.20;99.90
18934;DHT22;9599;53.706;10.384;2023-04-03T00:08:14;1.20;99.90
18934;DHT22;9599;53.706;10.384;2023-04-03T00:10:42;1.10;99.90
18934;DHT22;9599;53.706;10.384;2023-04-03T00:13:10;1.10;99.90
18934;DHT22;9599;53.706;10.384;2023-04-03T00:15:39;1.10;99.90
18934;DHT22;9599;53.706;10.384;2023-04-03T00:18:07;1.10;99.90
18934;DHT22;9599;53.706;10.384;2023-04-03T00:20:37;1.00;99.90
18934;DHT22;9599;53.706;10.384;2023-04-03T00:23:05;1.00;99.90
18934;DHT22;9599;53.706;10.384;2023-04-03T00:25:33;1.00;99.90
18934;DHT22;9599;53.706;10.384;2023-04-03T00:28:02;1.00;99.90
18934;DHT22;9599;53.706;10.384;2023-04-03T00:30:30;0.90;99.90
18934;DHT22;9599;53.706;10.384;2023-04-03T00:32:59;0.90;99.90
18934;DHT22;9599;53.706;10.384;2023-04-03T00:35:28;0.80;99.90
18934;DHT22;9599;53.706;10.384;2023-04-03T00:37:57;0.80;99.90
18934;DHT22;9599;53.706;10.384;2023-04-03T00:40:26;0.80;99.90
18934;DHT22;9599;53.706;10.384;2023-04-03T00:42:58;0.80;99.90
18934;DHT22;9599;53.706;10.384;2023-04-03T00:45:35;0.70;99.90
18934;DHT22;9599;53.706;10.384;2023-04-03T00:48:06;0.70;99.90
18934;DHT22;9599;53.706;10.384;2023-04-03T00:50:37;0.70;99.90
18934;DHT22;9599;53.706;10.384;2023-04-03T00:53:09;0.70;99.90
18934;DHT22;9599;53.706;10.384;2023-04-03T00:55:39;0.70;99.90
18934;DHT22;9599;53.706;10.384;2023-04-03T00:58:07;0.70;99.90
18934;DHT22;9599;53.706;10.384;2023-04-03T01:00:38;0.60;99.90
18934;DHT22;9599;53.706;10.384;2023-04-03T01:03:09;0.60;99.90
18934;DHT22;9599;53.706;10.384;2023-04-03T01:05:39;0.60;99.90
18934;DHT22;9599;53.706;10.384;2023-04-03T01:08:09;0.50;99.90
18934;DHT22;9599;53.706;10.384;2023-04-03T01:10:37;0.50;99.90
18934;DHT22;9599;53.706;10.384;2023-04-03T01:13:22;0.50;99.90
18934;DHT22;9599;53.706;10.384;2023-04-03T01:15:50;0.50;99.90
18934;DHT22;9599;53.706;10.384;2023-04-03T01:18:19;0.50;99.90
18934;DHT22;9599;53.706;10.384;2023-04-03T01:24:10;0.50;99.90
18934;DHT22;9599;53.706;10.384;2023-04-03T01:26:39;0.40;99.90
18934;DHT22;9599;53.706;10.384;2023-04-03T01:29:08;0.40;99.90
18934;DHT22;9599;53.706;10.384;2023-04-03T01:32:02;0.40;99.90
18934;DHT22;9599;53.706;10.384;2023-04-03T01:34:30;0.40;99.90
18934;DHT22;9599;53.706;10.384;2023-04-03T01:36:59;0.30;99.90
18934;DHT22;9599;53.706;10.384;2023-04-03T01:39:27;0.30;99.90
18934;DHT22;9599;53.706;10.384;2023-04-03T01:41:55;0.30;99.90
18934;DHT22;9599;53.706;10.384;2023-04-03T01:44:30;0.30;99.90
18934;DHT22;9599;53.706;10.384;2023-04-03T01:46:58;0.30;99.90
18934;DHT22;9599;53.706;10.384;2023-04-03T01:49:29;0.30;99.90
18934;DHT22;9599;53.706;10.384;2023-04-03T01:51:57;0.30;99.90
18934;DHT22;9599;53.706;10.384;2023-04-03T01:54:25;0.30;99.90
18934;DHT22;9599;53.706;10.384;2023-04-03T01:56:53;0.30;99.90
18934;DHT22;9599;53.706;10.384;2023-04-03T01:59:21;0.20;99.90
18934;DHT22;9599;53.706;10.384;2023-04-03T02:01:50;0.20;99.90
18934;DHT22;9599;53.706;10.384;2023-04-03T02:04:18;0.20;99.90
18934;DHT22;9599;53.706;10.384;2023-04-03T02:06:48;0.20;99.90
18934;DHT22;9599;53.706;10.384;2023-04-03T02:09:16;0.10;99.90
18934;DHT22;9599;53.706;10.384;2023-04-03T02:11:43;0.10;99.90
18934;DHT22;9599;53.706;10.384;2023-04-03T02:14:12;0.10;99.90
18934;DHT22;9599;53.706;10.384;2023-04-03T02:16:40;0.10;99.90
18934;DHT22;9599;53.706;10.384;2023-04-03T02:19:09;0.10;99.90
18934;DHT22;9599;53.706;10.384;2023-04-03T02:21:36;0.10;99.90
18934;DHT22;9599;53.706;10.384;2023-04-03T02:24:06;0.00;99.90
18934;DHT22;9599;53.706;10.384;2023-04-03T02:26:34;0.00;99.90
18934;DHT22;9599;53.706;10.384;2023-04-03T02:29:02;0.00;99.90
18934;DHT22;9599;53.706;10.384;2023-04-03T02:31:30;0.00;99.90
18934;DHT22;9599;53.706;10.384;2023-04-03T02:34:00;-0.10;99.90
18934;DHT22;9599;53.706;10.384;2023-04-03T02:36:28;-0.10;99.90
18934;DHT22;9599;53.706;10.384;2023-04-03T02:39:02;-0.10;99.90
18934;DHT22;9599;53.706;10.384;2023-04-03T02:41:32;-0.10;99.90
18934;DHT22;9599;53.706;10.384;2023-04-03T02:44:06;-0.10;99.90
18934;DHT22;9599;53.706;10.384;2023-04-03T02:46:34;-0.20;99.90
18934;DHT22;9599;53.706;10.384;2023-04-03T02:49:03;-0.20;99.90
18934;DHT22;9599;53.706;10.384;2023-04-03T02:51:31;-0.20;99.90
18934;DHT22;9599;53.706;10.384;2023-04-03T02:54:00;-0.20;99.90
18934;DHT22;9599;53.706;10.384;2023-04-03T02:56:32;-0.20;99.90
18934;DHT22;9599;53.706;10.384;2023-04-03T02:59:00;-0.20;99.90
18934;DHT22;9599;53.706;10.384;2023-04-03T03:01:31;-0.20;99.90
18934;DHT22;9599;53.706;10.384;2023-04-03T03:03:59;-0.20;99.90
18934;DHT22;9599;53.706;10.384;2023-04-03T03:06:27;-0.20;99.90
18934;DHT22;9599;53.706;10.384;2023-04-03T03:08:56;-0.20;99.90
18934;DHT22;9599;53.706;10.384;2023-04-03T03:11:24;-0.30;99.90
18934;DHT22;9599;53.706;10.384;2023-04-03T03:13:53;-0.30;99.90
18934;DHT22;9599;53.706;10.384;2023-04-03T03:16:23;-0.30;99.90
18934;DHT22;9599;53.706;10.384;2023-04-03T03:18:51;-0.40;99.90
18934;DHT22;9599;53.706;10.384;2023-04-03T03:21:19;-0.40;99.90
18934;DHT22;9599;53.706;10.384;2023-04-03T03:23:47;-0.40;99.90
18934;DHT22;9599;53.706;10.384;2023-04-03T03:26:15;-0.40;99.90
18934;DHT22;9599;53.706;10.384;2023-04-03T03:28:43;-0.40;99.90
18934;DHT22;9599;53.706;10.384;2023-04-03T03:31:13;-0.40;99.90
18934;DHT22;9599;53.706;10.384;2023-04-03T03:33:42;-0.40;99.90
18934;DHT22;9599;53.706;10.384;2023-04-03T03:36:09;-0.50;99.90
18934;DHT22;9599;53.706;10.384;2023-04-03T03:38:38;-0.50;99.90
18934;DHT22;9599;53.706;10.384;2023-04-03T03:41:06;-0.50;99.90
18934;DHT22;9599;53.706;10.384;2023-04-03T03:43:34;-0.60;99.90
18934;DHT22;9599;53.706;10.384;2023-04-03T03:46:04;-0.60;99.90
18934;DHT22;9599;53.706;10.384;2023-04-03T03:48:34;-0.60;99.90
18934;DHT22;9599;53.706;10.384;2023-04-03T03:51:02;-0.60;99.90
18934;DHT22;9599;53.706;10.384;2023-04-03T03:53:34;-0.60;99.90
18934;DHT22;9599;53.706;10.384;2023-04-03T03:56:06;-0.70;99.90
18934;DHT22;9599;53.706;10.384;2023-04-03T03:58:37;-0.70;99.90
18934;DHT22;9599;53.706;10.384;2023-04-03T04:01:05;-0.70;99.90
18934;DHT22;9599;53.706;10.384;2023-04-03T04:03:41;-0.70;99.90
18934;DHT22;9599;53.706;10.384;2023-04-03T04:06:12;-0.80;99.90
18934;DHT22;9599;53.706;10.384;2023-04-03T04:08:40;-0.80;99.90
18934;DHT22;9599;53.706;10.384;2023-04-03T04:11:10;-0.80;99.90
18934;DHT22;9599;53.706;10.384;2023-04-03T04:13:39;-0.80;99.90
18934;DHT22;9599;53.706;10.384;2023-04-03T04:16:10;-0.80;99.90
18934;DHT22;9599;53.706;10.384;2023-04-03T04:18:38;-0.80;99.90
18934;DHT22;9599;53.706;10.384;2023-04-03T04:21:08;-0.80;99.90
18934;DHT22;9599;53.706;10.384;2023-04-03T04:23:37;-0.80;99.90
18934;DHT22;9599;53.706;10.384;2023-04-03T04:26:05;-0.80;99.90
18934;DHT22;9599;53.706;10.384;2023-04-03T04:28:36;-0.90;99.90
18934;DHT22;9599;53.706;10.384;2023-04-03T04:31:05;-0.90;99.90
18934;DHT22;9599;53.706;10.384;2023-04-03T04:33:34;-0.90;99.90
18934;DHT22;9599;53.706;10.384;2023-04-03T04:36:04;-0.90;99.90
18934;DHT22;9599;53.706;10.384;2023-04-03T04:38:34;-0.90;99.90
18934;DHT22;9599;53.706;10.384;2023-04-03T04:41:02;-0.90;99.90
18934;DHT22;9599;53.706;10.384;2023-04-03T04:43:31;-1.00;99.90
18934;DHT22;9599;53.706;10.384;2023-04-03T04:46:04;-1.00;99.90
18934;DHT22;9599;53.706;10.384;2023-04-03T04:48:36;-1.00;99.90
18934;DHT22;9599;53.706;10.384;2023-04-03T04:51:05;-1.00;99.90
18934;DHT22;9599;53.706;10.384;2023-04-03T04:53:37;-1.00;99.90
18934;DHT22;9599;53.706;10.384;2023-04-03T04:56:07;-1.00;99.90
18934;DHT22;9599;53.706;10.384;2023-04-03T04:58:36;-1.00;99.90
18934;DHT22;9599;53.706;10.384;2023-04-03T05:01:06;-1.00;99.90
18934;DHT22;9599;53.706;10.384;2023-04-03T05:03:39;-1.00;99.90
18934;DHT22;9599;53.706;10.384;2023-04-03T05:06:07;-1.00;99.90
18934;DHT22;9599;53.706;10.384;2023-04-03T05:08:37;-1.00;99.90
18934;DHT22;9599;53.706;10.384;2023-04-03T05:11:08;-1.00;99.90
18934;DHT22;9599;53.706;10.384;2023-04-03T05:13:37;-1.00;99.90
18934;DHT22;9599;53.706;10.384;2023-04-03T05:16:06;-1.00;99.90
18934;DHT22;9599;53.706;10.384;2023-04-03T05:18:34;-1.00;99.90
18934;DHT22;9599;53.706;10.384;2023-04-03T05:21:07;-1.00;99.90
18934;DHT22;9599;53.706;10.384;2023-04-03T05:23:37;-1.00;99.90
18934;DHT22;9599;53.706;10.384;2023-04-03T05:26:05;-0.90;99.90
18934;DHT22;9599;53.706;10.384;2023-04-03T05:28:34;-0.90;99.90
18934;DHT22;9599;53.706;10.384;2023-04-03T05:31:02;-0.90;99.90
18934;DHT22;9599;53.706;10.384;2023-04-03T05:33:34;-0.90;99.90
18934;DHT22;9599;53.706;10.384;2023-04-03T05:36:06;-0.80;99.90
18934;DHT22;9599;53.706;10.384;2023-04-03T05:38:40;-0.80;99.90
18934;DHT22;9599;53.706;10.384;2023-04-03T05:41:09;-0.80;99.90
18934;DHT22;9599;53.706;10.384;2023-04-03T05:43:37;-0.80;99.90
18934;DHT22;9599;53.706;10.384;2023-04-03T05:46:10;-0.70;99.90
18934;DHT22;9599;53.706;10.384;2023-04-03T05:48:43;-0.60;99.90
18934;DHT22;9599;53.706;10.384;2023-04-03T05:51:17;-0.60;99.90
18934;DHT22;9599;53.706;10.384;2023-04-03T05:54:00;-0.40;99.90
18934;DHT22;9599;53.706;10.384;2023-04-03T05:56:30;-0.30;99.90
18934;DHT22;9599;53.706;10.384;2023-04-03T05:58:58;-0.20;99.90
18934;DHT22;9599;53.706;10.384;2023-04-03T06:01:27;0.00;99.90
18934;DHT22;9599;53.706;10.384;2023-04-03T06:03:56;0.00;99.90
18934;DHT22;9599;53.706;10.384;2023-04-03T06:06:25;0.20;99.90
18934;DHT22;9599;53.706;10.384;2023-04-03T06:08:56;0.30;99.90
18934;DHT22;9599;53.706;10.384;2023-04-03T06:11:24;0.40;99.90
18934;DHT22;9599;53.706;10.384;2023-04-03T06:13:52;0.60;99.90
18934;DHT22;9599;53.706;10.384;2023-04-03T06:16:20;0.80;99.90
18934;DHT22;9599;53.706;10.384;2023-04-03T06:18:48;0.90;99.90
18934;DHT22;9599;53.706;10.384;2023-04-03T06:21:16;1.10;99.90
18934;DHT22;9599;53.706;10.384;2023-04-03T06:23:45;1.30;99.90
18934;DHT22;9599;53.706;10.384;2023-04-03T06:26:14;1.40;99.90
18934;DHT22;9599;53.706;10.384;2023-04-03T06:28:42;1.50;99.90
18934;DHT22;9599;53.706;10.384;2023-04-03T06:31:10;1.60;99.90
18934;DHT22;9599;53.706;10.384;2023-04-03T06:33:38;1.80;99.90
18934;DHT22;9599;53.706;10.384;2023-04-03T06:36:07;2.10;99.90
18934;DHT22;9599;53.706;10.384;2023-04-03T06:38:35;2.40;99.90
18934;DHT22;9599;53.706;10.384;2023-04-03T06:41:03;2.50;99.90
18934;DHT22;9599;53.706;10.384;2023-04-03T06:43:32;2.60;99.90
18934;DHT22;9599;53.706;10.384;2023-04-03T06:46:00;2.70;99.90
18934;DHT22;9599;53.706;10.384;2023-04-03T06:48:28;2.80;99.90
18934;DHT22;9599;53.706;10.384;2023-04-03T06:50:58;3.00;99.90
18934;DHT22;9599;53.706;10.384;2023-04-03T06:53:25;3.20;99.90
18934;DHT22;9599;53.706;10.384;2023-04-03T06:55:54;3.20;99.90
18934;DHT22;9599;53.706;10.384;2023-04-03T06:58:21;3.30;99.90
18934;DHT22;9599;53.706;10.384;2023-04-03T07:00:51;3.40;99.90
18934;DHT22;9599;53.706;10.384;2023-04-03T07:03:18;3.70;99.90
18934;DHT22;9599;53.706;10.384;2023-04-03T07:05:46;3.90;99.90
18934;DHT22;9599;53.706;10.384;2023-04-03T07:08:14;4.00;99.90
18934;DHT22;9599;53.706;10.384;2023-04-03T07:10:42;4.00;99.90
18934;DHT22;9599;53.706;10.384;2023-04-03T07:13:10;4.10;99.90
18934;DHT22;9599;53.706;10.384;2023-04-03T07:15:38;4.20;99.90
18934;DHT22;9599;53.706;10.384;2023-04-03T07:18:07;4.30;99.90
18934;DHT22;9599;53.706;10.384;2023-04-03T07:20:35;4.30;99.90
18934;DHT22;9599;53.706;10.384;2023-04-03T07:23:03;4.40;99.90
18934;DHT22;9599;53.706;10.384;2023-04-03T07:25:31;4.40;99.90
18934;DHT22;9599;53.706;10.384;2023-04-03T07:28:00;4.40;99.90
18934;DHT22;9599;53.706;10.384;2023-04-03T07:30:28;4.60;99.90
18934;DHT22;9599;53.706;10.384;2023-04-03T07:32:56;4.60;99.90
18934;DHT22;9599;53.706;10.384;2023-04-03T07:35:25;4.70;99.90
18934;DHT22;9599;53.706;10.384;2023-04-03T07:37:53;4.90;99.90
18934;DHT22;9599;53.706;10.384;2023-04-03T07:40:21;5.10;99.90
18934;DHT22;9599;53.706;10.384;2023-04-03T07:42:49;5.20;99.90
18934;DHT22;9599;53.706;10.384;2023-04-03T07:45:17;5.30;99.90
18934;DHT22;9599;53.706;10.384;2023-04-03T07:47:46;5.50;99.90
18934;DHT22;9599;53.706;10.384;2023-04-03T07:50:14;5.70;99.90
18934;DHT22;9599;53.706;10.384;2023-04-03T07:52:44;5.90;99.90
18934;DHT22;9599;53.706;10.384;2023-04-03T07:55:12;6.20;99.90
18934;DHT22;9599;53.706;10.384;2023-04-03T07:57:40;6.50;99.90
18934;DHT22;9599;53.706;10.384;2023-04-03T08:00:10;6.70;99.90
18934;DHT22;9599;53.706;10.384;2023-04-03T08:02:40;6.80;99.90
18934;DHT22;9599;53.706;10.384;2023-04-03T08:05:08;7.00;99.90
18934;DHT22;9599;53.706;10.384;2023-04-03T08:07:37;7.20;99.90
18934;DHT22;9599;53.706;10.384;2023-04-03T08:10:07;7.30;99.90
18934;DHT22;9599;53.706;10.384;2023-04-03T08:12:35;7.40;99.90
18934;DHT22;9599;53.706;10.384;2023-04-03T08:15:05;7.40;99.90
18934;DHT22;9599;53.706;10.384;2023-04-03T08:17:33;7.50;99.90
18934;DHT22;9599;53.706;10.384;2023-04-03T08:20:03;7.60;99.90
18934;DHT22;9599;53.706;10.384;2023-04-03T08:22:31;7.60;99.90
18934;DHT22;9599;53.706;10.384;2023-04-03T08:24:59;7.50;99.90
18934;DHT22;9599;53.706;10.384;2023-04-03T08:27:29;7.60;99.90
18934;DHT22;9599;53.706;10.384;2023-04-03T08:29:58;7.60;99.90
18934;DHT22;9599;53.706;10.384;2023-04-03T08:32:26;8.00;99.90
18934;DHT22;9599;53.706;10.384;2023-04-03T08:34:54;8.20;99.90
18934;DHT22;9599;53.706;10.384;2023-04-03T08:37:22;8.40;99.90
18934;DHT22;9599;53.706;10.384;2023-04-03T08:39:50;8.50;99.90
18934;DHT22;9599;53.706;10.384;2023-04-03T08:42:27;8.40;99.90
18934;DHT22;9599;53.706;10.384;2023-04-03T08:45:08;8.60;99.90
18934;DHT22;9599;53.706;10.384;2023-04-03T08:47:40;8.60;99.90
18934;DHT22;9599;53.706;10.384;2023-04-03T08:50:13;8.70;99.90
18934;DHT22;9599;53.706;10.384;2023-04-03T08:52:46;8.70;99.90
18934;DHT22;9599;53.706;10.384;2023-04-03T08:55:22;8.60;99.90
18934;DHT22;9599;53.706;10.384;2023-04-03T08:57:58;8.50;99.90
18934;DHT22;9599;53.706;10.384;2023-04-03T09:00:32;8.80;99.90
18934;DHT22;9599;53.706;10.384;2023-04-03T09:03:02;9.10;99.90
18934;DHT22;9599;53.706;10.384;2023-04-03T09:05:38;9.10;99.90
18934;DHT22;9599;53.706;10.384;2023-04-03T09:08:12;9.10;99.90
18934;DHT22;9599;53.706;10.384;2023-04-03T09:10:42;9.00;99.90
18934;DHT22;9599;53.706;10.384;2023-04-03T09:13:18;9.00;99.90
18934;DHT22;9599;53.706;10.384;2023-04-03T09:15:52;8.80;99.90
18934;DHT22;9599;53.706;10.384;2023-04-03T09:18:23;8.80;99.90
18934;DHT22;9599;53.706;10.384;2023-04-03T09:20:57;8.70;99.90
18934;DHT22;9599;53.706;10.384;2023-04-03T09:23:30;8.70;99.90
18934;DHT22;9599;53.706;10.384;2023-04-03T09:26:02;8.70;99.90
18934;DHT22;9599;53.706;10.384;2023-04-03T09:28:34;8.90;99.90
18934;DHT22;9599;53.706;10.384;2023-04-03T09:31:20;8.80;99.90
18934;DHT22;9599;53.706;10.384;2023-04-03T09:33:49;8.80;99.90
18934;DHT22;9599;53.706;10.384;2023-04-03T09:36:42;9.00;99.90
18934;DHT22;9599;53.706;10.384;2023-04-03T09:39:13;9.20;99.90
18934;DHT22;9599;53.706;10.384;2023-04-03T09:41:55;9.30;99.90
18934;DHT22;9599;53.706;10.384;2023-04-03T09:44:25;9.30;99.90
18934;DHT22;9599;53.706;10.384;2023-04-03T09:46:55;9.20;99.90
18934;DHT22;9599;53.706;10.384;2023-04-03T09:49:23;9.20;99.90
18934;DHT22;9599;53.706;10.384;2023-04-03T09:51:51;9.20;99.90
18934;DHT22;9599;53.706;10.384;2023-04-03T09:54:40;9.60;99.90
18934;DHT22;9599;53.706;10.384;2023-04-03T09:57:11;10.00;99.90
18934;DHT22;9599;53.706;10.384;2023-04-03T09:59:44;10.10;99.90
18934;DHT22;9599;53.706;10.384;2023-04-03T10:02:30;10.10;99.90
18934;DHT22;9599;53.706;10.384;2023-04-03T10:04:59;10.40;99.90
18934;DHT22;9599;53.706;10.384;2023-04-03T10:07:33;10.30;99.90
18934;DHT22;9599;53.706;10.384;2023-04-03T10:10:17;10.30;99.90
18934;DHT22;9599;53.706;10.384;2023-04-03T10:12:45;10.20;99.90
18934;DHT22;9599;53.706;10.384;2023-04-03T10:15:14;9.80;99.90
18934;DHT22;9599;53.706;10.384;2023-04-03T10:17:52;9.00;99.90
18934;DHT22;9599;53.706;10.384;2023-04-03T10:20:31;8.60;99.90
18934;DHT22;9599;53.706;10.384;2023-04-03T10:23:12;8.40;99.90
18934;DHT22;9599;53.706;10.384;2023-04-03T10:25:50;8.40;99.90
18934;DHT22;9599;53.706;10.384;2023-04-03T10:28:30;8.50;99.90
18934;DHT22;9599;53.706;10.384;2023-04-03T10:31:04;8.90;99.90
18934;DHT22;9599;53.706;10.384;2023-04-03T10:33:48;9.40;99.90
18934;DHT22;9599;53.706;10.384;2023-04-03T10:36:26;9.10;99.90
18934;DHT22;9599;53.706;10.384;2023-04-03T10:39:01;8.70;99.90
18934;DHT22;9599;53.706;10.384;2023-04-03T10:41:39;8.30;99.90
18934;DHT22;9599;53.706;10.384;2023-04-03T10:44:16;8.00;99.90
18934;DHT22;9599;53.706;10.384;2023-04-03T10:46:51;7.80;99.90
18934;DHT22;9599;53.706;10.384;2023-04-03T10:49:35;7.60;99.90
18934;DHT22;9599;53.706;10.384;2023-04-03T10:52:12;7.60;99.90
18934;DHT22;9599;53.706;10.384;2023-04-03T10:54:45;8.10;99.90
18934;DHT22;9599;53.706;10.384;2023-04-03T10:57:14;8.70;99.90
18934;DHT22;9599;53.706;10.384;2023-04-03T10:59:45;8.90;99.90
18934;DHT22;9599;53.706;10.384;2023-04-03T11:02:23;9.50;99.90
18934;DHT22;9599;53.706;10.384;2023-04-03T11:05:00;9.40;99.90
18934;DHT22;9599;53.706;10.384;2023-04-03T11:07:35;9.20;99.90
18934;DHT22;9599;53.706;10.384;2023-04-03T11:10:10;9.10;99.90
18934;DHT22;9599;53.706;10.384;2023-04-03T11:12:43;9.50;99.90
18934;DHT22;9599;53.706;10.384;2023-04-03T11:15:15;9.70;99.90
18934;DHT22;9599;53.706;10.384;2023-04-03T11:17:49;9.40;99.90
18934;DHT22;9599;53.706;10.384;2023-04-03T11:20:24;9.20;99.90
18934;DHT22;9599;53.706;10.384;2023-04-03T11:22:58;9.00;99.90
18934;DHT22;9599;53.706;10.384;2023-04-03T11:25:30;8.80;99.90
18934;DHT22;9599;53.706;10.384;2023-04-03T11:28:01;8.90;99.90
18934;DHT22;9599;53.706;10.384;2023-04-03T11:30:33;8.90;99.90
18934;DHT22;9599;53.706;10.384;2023-04-03T11:33:15;9.40;99.90
18934;DHT22;9599;53.706;10.384;2023-04-03T11:35:50;9.50;99.90
18934;DHT22;9599;53.706;10.384;2023-04-03T11:38:22;9.60;99.90
18934;DHT22;9599;53.706;10.384;2023-04-03T11:40:51;9.60;99.90
18934;DHT22;9599;53.706;10.384;2023-04-03T11:43:22;9.80;99.90
18934;DHT22;9599;53.706;10.384;2023-04-03T11:45:54;9.70;99.90
18934;DHT22;9599;53.706;10.384;2023-04-03T11:48:48;9.90;99.90
18934;DHT22;9599;53.706;10.384;2023-04-03T11:51:42;9.70;99.90
18934;DHT22;9599;53.706;10.384;2023-04-03T11:54:47;9.40;99.90
18934;DHT22;9599;53.706;10.384;2023-04-03T11:58:02;9.50;99.90
18934;DHT22;9599;53.706;10.384;2023-04-03T12:00:53;9.60;99.90
18934;DHT22;9599;53.706;10.384;2023-04-03T12:10:13;8.50;99.90
18934;DHT22;9599;53.706;10.384;2023-04-03T12:12:59;8.80;99.90
18934;DHT22;9599;53.706;10.384;2023-04-03T12:15:49;9.00;99.90
18934;DHT22;9599;53.706;10.384;2023-04-03T12:18:55;8.60;99.90
18934;DHT22;9599;53.706;10.384;2023-04-03T12:22:09;8.30;99.90
18934;DHT22;9599;53.706;10.384;2023-04-03T12:24:38;8.40;99.90
18934;DHT22;9599;53.706;10.384;2023-04-03T12:27:21;8.30;99.90
18934;DHT22;9599;53.706;10.384;2023-04-03T12:29:58;8.40;99.90
18934;DHT22;9599;53.706;10.384;2023-04-03T12:32:55;8.30;99.90
18934;DHT22;9599;53.706;10.384;2023-04-03T12:35:43;8.40;99.90
18934;DHT22;9599;53.706;10.384;2023-04-03T12:38:37;8.70;99.90
18934;DHT22;9599;53.706;10.384;2023-04-03T12:41:22;8.80;99.90
18934;DHT22;9599;53.706;10.384;2023-04-03T12:44:12;8.60;99.90
18934;DHT22;9599;53.706;10.384;2023-04-03T12:46:47;8.40;99.90
18934;DHT22;9599;53.706;10.384;2023-04-03T12:49:29;8.60;99.90
18934;DHT22;9599;53.706;10.384;2023-04-03T12:52:00;8.70;99.90
18934;DHT22;9599;53.706;10.384;2023-04-03T12:54:34;8.50;99.90
18934;DHT22;9599;53.706;10.384;2023-04-03T12:57:09;8.10;99.90
18934;DHT22;9599;53.706;10.384;2023-04-03T12:59:38;8.20;99.90
18934;DHT22;9599;53.706;10.384;2023-04-03T13:02:19;8.30;99.90
18934;DHT22;9599;53.706;10.384;2023-04-03T13:04:50;8.30;99.90
18934;DHT22;9599;53.706;10.384;2023-04-03T13:07:24;8.30;99.90
18934;DHT22;9599;53.706;10.384;2023-04-03T13:10:00;8.50;99.90
18934;DHT22;9599;53.706;10.384;2023-04-03T13:12:28;8.60;99.90
18934;DHT22;9599;53.706;10.384;2023-04-03T13:15:00;8.60;99.90
18934;DHT22;9599;53.706;10.384;2023-04-03T13:17:30;8.60;99.90
18934;DHT22;9599;53.706;10.384;2023-04-03T13:20:11;8.50;99.90
18934;DHT22;9599;53.706;10.384;2023-04-03T13:22:47;8.50;99.90
18934;DHT22;9599;53.706;10.384;2023-04-03T13:25:18;8.50;99.90
18934;DHT22;9599;53.706;10.384;2023-04-03T13:27:47;8.40;99.90
18934;DHT22;9599;53.706;10.384;2023-04-03T13:30:27;8.50;99.90
18934;DHT22;9599;53.706;10.384;2023-04-03T13:32:58;8.50;99.90
18934;DHT22;9599;53.706;10.384;2023-04-03T13:35:34;8.30;99.90
18934;DHT22;9599;53.706;10.384;2023-04-03T13:38:07;8.20;99.90
18934;DHT22;9599;53.706;10.384;2023-04-03T13:40:51;8.20;99.90
18934;DHT22;9599;53.706;10.384;2023-04-03T13:43:21;8.40;99.90
18934;DHT22;9599;53.706;10.384;2023-04-03T13:46:00;8.50;99.90
18934;DHT22;9599;53.706;10.384;2023-04-03T13:48:36;8.50;99.90
18934;DHT22;9599;53.706;10.384;2023-04-03T13:51:16;8.50;99.90
18934;DHT22;9599;53.706;10.384;2023-04-03T13:53:46;8.40;99.90
18934;DHT22;9599;53.706;10.384;2023-04-03T13:56:25;8.40;99.90
18934;DHT22;9599;53.706;10.384;2023-04-03T13:59:00;8.40;99.90
18934;DHT22;9599;53.706;10.384;2023-04-03T14:01:39;8.40;99.90
18934;DHT22;9599;53.706;10.384;2023-04-03T14:04:14;8.30;99.90
18934;DHT22;9599;53.706;10.384;2023-04-03T14:06:43;8.40;99.90
18934;DHT22;9599;53.706;10.384;2023-04-03T14:09:12;8.40;99.90
18934;DHT22;9599;53.706;10.384;2023-04-03T14:11:41;8.40;99.90
18934;DHT22;9599;53.706;10.384;2023-04-03T14:14:13;8.20;99.90
18934;DHT22;9599;53.706;10.384;2023-04-03T14:16:45;8.30;99.90
18934;DHT22;9599;53.706;10.384;2023-04-03T14:19:22;8.30;99.90
18934;DHT22;9599;53.706;10.384;2023-04-03T14:21:51;8.40;99.90
18934;DHT22;9599;53.706;10.384;2023-04-03T14:24:19;8.40;99.90
18934;DHT22;9599;53.706;10.384;2023-04-03T14:26:52;8.50;99.90
18934;DHT22;9599;53.706;10.384;2023-04-03T14:29:21;8.30;99.90
18934;DHT22;9599;53.706;10.384;2023-04-03T14:31:50;8.20;99.90
18934;DHT22;9599;53.706;10.384;2023-04-03T14:34:33;8.30;99.90
18934;DHT22;9599;53.706;10.384;2023-04-03T14:37:01;8.40;99.90
18934;DHT22;9599;53.706;10.384;2023-04-03T14:39:29;8.40;99.90
18934;DHT22;9599;53.706;10.384;2023-04-03T14:41:58;8.40;99.90
18934;DHT22;9599;53.706;10.384;2023-04-03T14:44:26;8.60;99.90
18934;DHT22;9599;53.706;10.384;2023-04-03T14:46:54;8.50;99.90
18934;DHT22;9599;53.706;10.384;2023-04-03T14:49:26;8.50;99.90
18934;DHT22;9599;53.706;10.384;2023-04-03T14:51:56;8.40;99.90
18934;DHT22;9599;53.706;10.384;2023-04-03T14:54:24;8.10;99.90
18934;DHT22;9599;53.706;10.384;2023-04-03T14:56:58;8.10;99.90
18934;DHT22;9599;53.706;10.384;2023-04-03T14:59:27;8.20;99.90
18934;DHT22;9599;53.706;10.384;2023-04-03T15:01:55;8.20;99.90
18934;DHT22;9599;53.706;10.384;2023-04-03T15:04:23;7.80;99.90
18934;DHT22;9599;53.706;10.384;2023-04-03T15:06:52;7.70;99.90
18934;DHT22;9599;53.706;10.384;2023-04-03T15:09:22;7.60;99.90
18934;DHT22;9599;53.706;10.384;2023-04-03T15:11:52;7.80;99.90
18934;DHT22;9599;53.706;10.384;2023-04-03T15:14:22;8.00;99.90
18934;DHT22;9599;53.706;10.384;2023-04-03T15:17:03;8.30;99.90
18934;DHT22;9599;53.706;10.384;2023-04-03T15:19:35;8.20;99.90
18934;DHT22;9599;53.706;10.384;2023-04-03T15:22:04;7.90;99.90
18934;DHT22;9599;53.706;10.384;2023-04-03T15:24:32;7.80;99.90
18934;DHT22;9599;53.706;10.384;2023-04-03T15:27:00;7.60;99.90
18934;DHT22;9599;53.706;10.384;2023-04-03T15:29:30;7.50;99.90
18934;DHT22;9599;53.706;10.384;2023-04-03T15:31:58;7.40;99.90
18934;DHT22;9599;53.706;10.384;2023-04-03T15:34:26;7.50;99.90
18934;DHT22;9599;53.706;10.384;2023-04-03T15:36:55;7.50;99.90
18934;DHT22;9599;53.706;10.384;2023-04-03T15:39:24;7.60;99.90
18934;DHT22;9599;53.706;10.384;2023-04-03T15:41:52;7.70;99.90
18934;DHT22;9599;53.706;10.384;2023-04-03T15:44:21;7.70;99.90
18934;DHT22;9599;53.706;10.384;2023-04-03T15:46:50;7.60;99.90
18934;DHT22;9599;53.706;10.384;2023-04-03T15:49:19;7.50;99.90
18934;DHT22;9599;53.706;10.384;2023-04-03T15:51:48;7.50;99.90
18934;DHT22;9599;53.706;10.384;2023-04-03T15:54:16;7.50;99.90
18934;DHT22;9599;53.706;10.384;2023-04-03T15:56:44;7.50;99.90
18934;DHT22;9599;53.706;10.384;2023-04-03T15:59:12;7.50;99.90
18934;DHT22;9599;53.706;10.384;2023-04-03T16:01:40;7.50;99.90
18934;DHT22;9599;53.706;10.384;2023-04-03T16:04:10;7.40;99.90
18934;DHT22;9599;53.706;10.384;2023-04-03T16:06:39;7.40;99.90
18934;DHT22;9599;53.706;10.384;2023-04-03T16:09:08;7.40;99.90
18934;DHT22;9599;53.706;10.384;2023-04-03T16:11:37;7.40;99.90
18934;DHT22;9599;53.706;10.384;2023-04-03T16:14:06;7.40;99.90
18934;DHT22;9599;53.706;10.384;2023-04-03T16:16:35;7.50;99.90
18934;DHT22;9599;53.706;10.384;2023-04-03T16:19:03;7.50;99.90
18934;DHT22;9599;53.706;10.384;2023-04-03T16:21:33;7.40;99.90